Wetterdaten: Woche 04.04.16 - 10.04.16 (KW14)
Datum Zeit Auen-Temp. Temp gefhlt Luftfeuchte Luftdruck Regen Wind Richtung Sonnenschein Taupunkt Windben
04.04.2016 00:00 14,2 C 14,2 C 45 % 1010,3 hPa 0,0 mm 0,6 km/h (0 Bft) O-NO 0,00 h 2,5 C 1,3 km/h (1 Bft)
04.04.2016 01:00 13,4 C 13,5 C 45 % 1009,9 hPa 0,0 mm 0,1 km/h (0 Bft) N 0,00 h 1,8 C 0,0 km/h (0 Bft)
04.04.2016 02:00 12,9 C 12,9 C 47 % 1009,6 hPa 0,0 mm 0,2 km/h (0 Bft) N 0,00 h 1,9 C 0,6 km/h (0 Bft)
04.04.2016 03:00 10,8 C 11,0 C 56 % 1009,3 hPa 0,0 mm 0,3 km/h (0 Bft) N 0,00 h 2,4 C 0,0 km/h (0 Bft)
04.04.2016 04:00 11,7 C 12,0 C 56 % 1009,0 hPa 0,0 mm 0,4 km/h (0 Bft) W 0,00 h 3,3 C 0,3 km/h (0 Bft)
04.04.2016 05:00 12,6 C 12,9 C 53 % 1008,9 hPa 0,0 mm 0,1 km/h (0 Bft) N 0,00 h 3,4 C 0,9 km/h (0 Bft)
04.04.2016 06:00 12,4 C 12,5 C 53 % 1008,9 hPa 0,0 mm 1,6 km/h (1 Bft) S 0,00 h 3,0 C 2,8 km/h (1 Bft)
04.04.2016 07:00 10,9 C 11,3 C 57 % 1009,5 hPa 0,0 mm 1,6 km/h (1 Bft) S-SO 0,00 h 2,8 C 1,9 km/h (1 Bft)
04.04.2016 08:00 10,7 C 11,9 C 61 % 1009,9 hPa 0,0 mm 0,0 km/h (0 Bft) N 0,00 h 3,4 C 0,0 km/h (0 Bft)
04.04.2016 09:00 14,6 C 19,6 C 58 % 1010,3 hPa 0,0 mm 0,1 km/h (0 Bft) N 0,92 h 6,4 C 0,3 km/h (0 Bft)
04.04.2016 10:00 18,3 C 24,7 C 48 % 1011,4 hPa 0,0 mm 4,0 km/h (1 Bft) NW 1,00 h 7,1 C 6,4 km/h (2 Bft)
04.04.2016 11:00 18,0 C 20,8 C 47 % 1011,6 hPa 0,0 mm 4,9 km/h (1 Bft) W 0,50 h 6,4 C 6,8 km/h (2 Bft)
04.04.2016 12:00 20,0 C 23,9 C 44 % 1010,9 hPa 0,0 mm 9,4 km/h (2 Bft) NW 0,67 h 7,4 C 13,3 km/h (3 Bft)
04.04.2016 13:00 20,6 C 23,4 C 43 % 1011,3 hPa 0,0 mm 10,5 km/h (2 Bft) N-NW 0,25 h 7,5 C 15,7 km/h (3 Bft)
04.04.2016 14:00 20,1 C 22,3 C 45 % 1010,5 hPa 0,0 mm 8,5 km/h (2 Bft) NW 0,08 h 7,8 C 10,2 km/h (2 Bft)
04.04.2016 15:00 20,7 C 24,1 C 44 % 1009,6 hPa 0,0 mm 8,3 km/h (2 Bft) N-NO 0,67 h 7,9 C 8,9 km/h (2 Bft)
04.04.2016 16:00 19,9 C 22,4 C 44 % 1009,0 hPa 0,0 mm 7,8 km/h (2 Bft) N-NO 0,33 h 7,1 C 9,0 km/h (2 Bft)
04.04.2016 17:00 18,8 C 20,0 C 48 % 1008,5 hPa 0,0 mm 12,2 km/h (2 Bft) N-NO 0,00 h 7,6 C 17,1 km/h (3 Bft)
04.04.2016 18:00 17,3 C 17,9 C 53 % 1008,2 hPa 0,0 mm 9,1 km/h (2 Bft) NO 0,00 h 7,5 C 10,1 km/h (2 Bft)
04.04.2016 19:00 14,5 C 14,4 C 61 % 1008,2 hPa 0,0 mm 1,3 km/h (1 Bft) O-SO 0,00 h 7,1 C 2,3 km/h (1 Bft)
04.04.2016 20:00 12,4 C 12,4 C 68 % 1008,3 hPa 0,0 mm 1,2 km/h (1 Bft) SO 0,00 h 6,6 C 1,8 km/h (1 Bft)
04.04.2016 21:00 11,1 C 11,1 C 72 % 1008,2 hPa 0,0 mm 1,0 km/h (0 Bft) O-SO 0,00 h 6,3 C 1,1 km/h (1 Bft)
04.04.2016 22:00 10,4 C 10,3 C 76 % 1008,0 hPa 0,0 mm 0,1 km/h (0 Bft) N 0,00 h 6,4 C 0,0 km/h (0 Bft)
04.04.2016 23:00 10,5 C 10,4 C 71 % 1007,6 hPa 0,0 mm 0,3 km/h (0 Bft) NO 0,00 h 5,5 C 0,5 km/h (0 Bft)
05.04.2016 00:00 11,3 C 11,1 C 61 % 1007,3 hPa 0,0 mm 0,1 km/h (0 Bft) N 0,00 h 4,1 C 0,2 km/h (0 Bft)
05.04.2016 01:00 9,6 C 9,5 C 63 % 1007,2 hPa 0,0 mm 0,6 km/h (0 Bft) O 0,00 h 3,0 C 1,1 km/h (1 Bft)
05.04.2016 02:00 7,3 C 7,1 C 70 % 1006,9 hPa 0,0 mm 0,2 km/h (0 Bft) O-SO 0,00 h 2,3 C 0,7 km/h (0 Bft)
05.04.2016 03:00 6,9 C 6,8 C 71 % 1006,5 hPa 0,0 mm 1,6 km/h (1 Bft) S-SW 0,00 h 2,0 C 2,6 km/h (1 Bft)
05.04.2016 04:00 6,0 C 6,0 C 74 % 1006,1 hPa 0,0 mm 2,1 km/h (1 Bft) S-SO 0,00 h 1,7 C 3,3 km/h (1 Bft)
05.04.2016 05:00 5,1 C 5,0 C 78 % 1006,0 hPa 0,0 mm 0,4 km/h (0 Bft) N 0,00 h 1,6 C 0,0 km/h (0 Bft)
05.04.2016 06:00 6,2 C 6,4 C 77 % 1006,1 hPa 0,0 mm 0,3 km/h (0 Bft) N 0,00 h 2,5 C 0,3 km/h (0 Bft)
05.04.2016 07:00 10,0 C 10,4 C 67 % 1006,5 hPa 0,0 mm 0,1 km/h (0 Bft) N 0,00 h 4,0 C 0,3 km/h (0 Bft)
05.04.2016 08:00 11,9 C 13,0 C 61 % 1006,6 hPa 0,0 mm 0,2 km/h (0 Bft) N 0,08 h 4,6 C 0,0 km/h (0 Bft)
05.04.2016 09:00 16,0 C 20,3 C 54 % 1007,2 hPa 0,0 mm 2,3 km/h (1 Bft) W-SW 1,00 h 6,7 C 4,4 km/h (1 Bft)
05.04.2016 10:00 16,4 C 19,3 C 50 % 1008,1 hPa 0,0 mm 5,5 km/h (1 Bft) W-SW 0,50 h 6,0 C 8,6 km/h (2 Bft)
05.04.2016 11:00 17,5 C 21,2 C 49 % 1008,9 hPa 0,0 mm 5,2 km/h (1 Bft) W-SW 0,67 h 6,7 C 6,8 km/h (2 Bft)
05.04.2016 12:00 18,9 C 22,9 C 48 % 1009,3 hPa 0,0 mm 6,1 km/h (2 Bft) N-NW 0,63 h 7,6 C 6,2 km/h (2 Bft)
05.04.2016 13:00 20,4 C 24,3 C 45 % 1010,0 hPa 0,0 mm 7,6 km/h (2 Bft) NW 0,42 h 8,2 C 9,5 km/h (2 Bft)
05.04.2016 14:00 21,0 C 25,2 C 44 % 1009,8 hPa 0,0 mm 7,3 km/h (2 Bft) N-NO 0,83 h 8,4 C 7,2 km/h (2 Bft)
05.04.2016 15:00 19,9 C 22,0 C 47 % 1009,2 hPa 0,0 mm 9,2 km/h (2 Bft) NW 0,00 h 8,3 C 11,5 km/h (2 Bft)
05.04.2016 16:00 18,5 C 19,3 C 51 % 1008,9 hPa 0,0 mm 8,2 km/h (2 Bft) NW 0,00 h 8,0 C 10,6 km/h (2 Bft)
05.04.2016 17:00 16,9 C 17,3 C 55 % 1009,0 hPa 0,0 mm 6,5 km/h (2 Bft) NW 0,00 h 7,9 C 7,4 km/h (2 Bft)
05.04.2016 18:00 15,6 C 15,6 C 59 % 1009,3 hPa 0,0 mm 4,2 km/h (1 Bft) W 0,00 h 7,5 C 6,0 km/h (2 Bft)
05.04.2016 19:00 13,9 C 13,9 C 63 % 1009,8 hPa 0,0 mm 3,7 km/h (1 Bft) W 0,00 h 7,0 C 5,2 km/h (1 Bft)
05.04.2016 20:00 12,5 C 12,5 C 69 % 1010,4 hPa 0,0 mm 2,6 km/h (1 Bft) W 0,00 h 6,9 C 3,5 km/h (1 Bft)
05.04.2016 21:00 12,5 C 12,4 C 72 % 1011,3 hPa 0,0 mm 2,9 km/h (1 Bft) S 0,00 h 7,6 C 3,3 km/h (1 Bft)
05.04.2016 22:00 12,0 C 12,0 C 73 % 1011,9 hPa 0,0 mm 8,3 km/h (2 Bft) W 0,00 h 7,3 C 12,6 km/h (3 Bft)
05.04.2016 23:00 11,0 C 10,9 C 74 % 1012,6 hPa 0,0 mm 3,8 km/h (1 Bft) W-SW 0,00 h 6,5 C 5,4 km/h (1 Bft)
06.04.2016 00:00 10,6 C 10,5 C 74 % 1012,9 hPa 0,0 mm 4,1 km/h (1 Bft) W-NW 0,00 h 6,2 C 8,6 km/h (2 Bft)
06.04.2016 01:00 10,1 C 10,0 C 75 % 1013,1 hPa 0,0 mm 7,4 km/h (2 Bft) W 0,00 h 5,9 C 10,9 km/h (2 Bft)
06.04.2016 02:00 8,9 C 8,6 C 82 % 1013,4 hPa 0,0 mm 7,6 km/h (2 Bft) W 0,00 h 5,9 C 10,2 km/h (2 Bft)
06.04.2016 03:00 7,9 C 7,6 C 85 % 1013,6 hPa 0,0 mm 7,6 km/h (2 Bft) W-SW 0,00 h 5,6 C 8,2 km/h (2 Bft)
06.04.2016 04:00 6,7 C 6,5 C 86 % 1013,7 hPa 0,7 mm 5,1 km/h (1 Bft) W-SW 0,00 h 4,6 C 5,8 km/h (2 Bft)
06.04.2016 05:00 6,5 C 6,3 C 86 % 1013,8 hPa 0,0 mm 5,3 km/h (1 Bft) SW 0,00 h 4,3 C 7,9 km/h (2 Bft)
06.04.2016 06:00 6,4 C 6,2 C 86 % 1013,8 hPa 0,0 mm 4,2 km/h (1 Bft) SW 0,00 h 4,3 C 5,8 km/h (2 Bft)
06.04.2016 07:00 6,3 C 6,1 C 86 % 1014,4 hPa 1,4 mm 3,9 km/h (1 Bft) W 0,00 h 4,2 C 6,0 km/h (2 Bft)
06.04.2016 08:00 6,5 C 6,4 C 84 % 1014,7 hPa 0,0 mm 2,7 km/h (1 Bft) W 0,00 h 3,9 C 2,7 km/h (1 Bft)
06.04.2016 09:00 6,7 C 6,6 C 83 % 1015,1 hPa 0,7 mm 5,1 km/h (1 Bft) W 0,00 h 3,9 C 7,0 km/h (2 Bft)
06.04.2016 10:00 7,1 C 7,4 C 82 % 1015,7 hPa 0,7 mm 6,7 km/h (2 Bft) W 0,00 h 4,3 C 8,6 km/h (2 Bft)
06.04.2016 11:00 7,9 C 8,3 C 80 % 1015,9 hPa 0,0 mm 8,1 km/h (2 Bft) W 0,00 h 4,8 C 10,9 km/h (2 Bft)
06.04.2016 12:00 8,1 C 9,0 C 79 % 1016,0 hPa 0,0 mm 6,3 km/h (2 Bft) W-SW 0,00 h 4,7 C 7,9 km/h (2 Bft)
06.04.2016 13:00 8,6 C 10,0 C 77 % 1015,7 hPa 0,0 mm 5,7 km/h (1 Bft) W 0,00 h 4,8 C 8,4 km/h (2 Bft)
06.04.2016 14:00 8,4 C 8,6 C 76 % 1015,4 hPa 0,7 mm 2,2 km/h (1 Bft) W 0,00 h 4,4 C 2,8 km/h (1 Bft)
06.04.2016 15:00 9,5 C 11,0 C 76 % 1014,8 hPa 0,0 mm 2,3 km/h (1 Bft) W 0,08 h 5,5 C 4,1 km/h (1 Bft)
06.04.2016 16:00 10,9 C 14,3 C 70 % 1014,4 hPa 0,0 mm 5,5 km/h (1 Bft) N-NO 0,75 h 5,5 C 6,8 km/h (2 Bft)
06.04.2016 17:00 10,7 C 12,0 C 68 % 1014,0 hPa 0,0 mm 5,4 km/h (1 Bft) W-SW 0,00 h 4,9 C 5,8 km/h (2 Bft)
06.04.2016 18:00 10,4 C 11,2 C 69 % 1013,5 hPa 0,0 mm 2,4 km/h (1 Bft) W-SW 0,00 h 4,9 C 3,4 km/h (1 Bft)
06.04.2016 19:00 9,6 C 9,7 C 72 % 1012,8 hPa 0,0 mm 0,3 km/h (0 Bft) N 0,00 h 4,9 C 0,6 km/h (0 Bft)
06.04.2016 20:00 8,3 C 8,2 C 78 % 1012,5 hPa 0,0 mm 0,0 km/h (0 Bft) N 0,00 h 4,6 C 0,0 km/h (0 Bft)
06.04.2016 21:00 7,2 C 6,9 C 79 % 1012,6 hPa 0,0 mm 0,1 km/h (0 Bft) N 0,00 h 3,9 C 0,0 km/h (0 Bft)
06.04.2016 22:00 6,0 C 5,4 C 83 % 1012,7 hPa 0,0 mm 0,0 km/h (0 Bft) N 0,00 h 3,4 C 0,0 km/h (0 Bft)
06.04.2016 23:00 5,1 C 4,7 C 85 % 1012,6 hPa 0,0 mm 0,0 km/h (0 Bft) N 0,00 h 2,8 C 0,0 km/h (0 Bft)
07.04.2016 00:00 4,2 C 3,9 C 87 % 1012,6 hPa 0,0 mm 0,7 km/h (0 Bft) O-NO 0,00 h 2,3 C 2,1 km/h (1 Bft)
07.04.2016 01:00 4,3 C 4,1 C 88 % 1012,3 hPa 0,0 mm 0,4 km/h (0 Bft) NO 0,00 h 2,5 C 0,6 km/h (0 Bft)
07.04.2016 02:00 4,8 C 4,7 C 87 % 1011,9 hPa 0,0 mm 0,5 km/h (0 Bft) SW 0,00 h 2,9 C 1,5 km/h (1 Bft)
07.04.2016 03:00 7,0 C 6,9 C 85 % 1011,6 hPa 0,0 mm 5,3 km/h (1 Bft) S 0,00 h 4,7 C 7,5 km/h (2 Bft)
07.04.2016 04:00 7,4 C 7,4 C 78 % 1011,3 hPa 0,0 mm 4,3 km/h (1 Bft) SW 0,00 h 3,9 C 5,0 km/h (1 Bft)
07.04.2016 05:00 7,3 C 7,3 C 76 % 1011,1 hPa 0,0 mm 3,4 km/h (1 Bft) S 0,00 h 3,4 C 4,9 km/h (1 Bft)
07.04.2016 06:00 7,1 C 7,1 C 75 % 1011,0 hPa 0,0 mm 3,3 km/h (1 Bft) S-SW 0,00 h 3,0 C 4,2 km/h (1 Bft)
07.04.2016 07:00 7,0 C 7,0 C 76 % 1011,3 hPa 0,0 mm 2,0 km/h (1 Bft) S 0,00 h 3,2 C 2,7 km/h (1 Bft)
07.04.2016 08:00 7,3 C 7,4 C 75 % 1011,8 hPa 0,0 mm 1,8 km/h (1 Bft) W 0,00 h 3,1 C 1,7 km/h (1 Bft)
07.04.2016 09:00 7,3 C 7,6 C 75 % 1011,9 hPa 0,0 mm 3,0 km/h (1 Bft) SW 0,00 h 3,1 C 4,6 km/h (1 Bft)
07.04.2016 10:00 7,9 C 8,9 C 74 % 1012,0 hPa 0,0 mm 2,0 km/h (1 Bft) W 0,00 h 3,6 C 3,1 km/h (1 Bft)
07.04.2016 11:00 8,7 C 10,1 C 71 % 1012,2 hPa 0,0 mm 4,2 km/h (1 Bft) W 0,00 h 3,8 C 5,7 km/h (1 Bft)
07.04.2016 12:00 9,2 C 10,7 C 67 % 1012,0 hPa 0,0 mm 7,1 km/h (2 Bft) W-SW 0,00 h 3,4 C 8,7 km/h (2 Bft)
07.04.2016 13:00 9,5 C 10,8 C 66 % 1011,9 hPa 0,0 mm 7,4 km/h (2 Bft) W 0,00 h 3,4 C 10,3 km/h (2 Bft)
07.04.2016 14:00 9,3 C 9,8 C 65 % 1011,8 hPa 0,0 mm 8,7 km/h (2 Bft) W 0,00 h 3,1 C 12,7 km/h (3 Bft)
07.04.2016 15:00 8,9 C 9,5 C 65 % 1011,4 hPa 0,0 mm 6,8 km/h (2 Bft) W-SW 0,00 h 2,7 C 7,6 km/h (2 Bft)
07.04.2016 16:00 8,6 C 8,8 C 66 % 1011,1 hPa 0,0 mm 5,9 km/h (2 Bft) W 0,00 h 2,5 C 7,8 km/h (2 Bft)
07.04.2016 17:00 7,9 C 7,8 C 68 % 1011,0 hPa 0,0 mm 6,8 km/h (2 Bft) W-SW 0,00 h 2,3 C 9,1 km/h (2 Bft)
07.04.2016 18:00 6,3 C 6,0 C 80 % 1011,2 hPa 0,7 mm 6,8 km/h (2 Bft) NW 0,00 h 3,1 C 8,3 km/h (2 Bft)
07.04.2016 19:00 5,3 C 5,1 C 83 % 1011,5 hPa 0,7 mm 5,1 km/h (1 Bft) NW 0,00 h 2,7 C 5,7 km/h (1 Bft)
07.04.2016 20:00 4,9 C 4,7 C 84 % 1011,8 hPa 0,7 mm 4,2 km/h (1 Bft) NW 0,00 h 2,4 C 5,5 km/h (1 Bft)
07.04.2016 21:00 4,4 C 4,2 C 86 % 1012,5 hPa 0,7 mm 1,2 km/h (1 Bft) W-SW 0,00 h 2,2 C 0,9 km/h (0 Bft)
07.04.2016 22:00 4,2 C 4,0 C 87 % 1012,7 hPa 2,1 mm 3,3 km/h (1 Bft) W-NW 0,00 h 2,2 C 5,1 km/h (1 Bft)
07.04.2016 23:00 3,1 C 2,8 C 87 % 1013,0 hPa 1,4 mm 4,5 km/h (1 Bft) W-SW 0,00 h 1,1 C 4,6 km/h (1 Bft)
08.04.2016 00:00 2,6 C 2,4 C 87 % 1013,1 hPa 0,7 mm 3,7 km/h (1 Bft) S 0,00 h 0,8 C 5,9 km/h (2 Bft)
08.04.2016 01:00 2,6 C 2,4 C 86 % 1012,8 hPa 0,0 mm 0,7 km/h (0 Bft) W-NW 0,00 h 0,5 C 0,0 km/h (0 Bft)
08.04.2016 02:00 2,6 C 2,4 C 87 % 1012,1 hPa 0,0 mm 0,0 km/h (0 Bft) N 0,00 h 0,7 C 0,0 km/h (0 Bft)
08.04.2016 03:00 2,6 C 2,4 C 87 % 1011,8 hPa 0,0 mm 0,1 km/h (0 Bft) N 0,00 h 0,7 C 0,0 km/h (0 Bft)
08.04.2016 04:00 2,5 C 2,3 C 89 % 1011,6 hPa 0,7 mm 0,2 km/h (0 Bft) N 0,00 h 0,8 C 0,0 km/h (0 Bft)
08.04.2016 05:00 2,0 C 1,8 C 88 % 1011,3 hPa 0,7 mm 0,5 km/h (0 Bft) NW 0,00 h 0,2 C 0,3 km/h (0 Bft)
08.04.2016 06:00 1,6 C 1,4 C 87 % 1011,1 hPa 0,0 mm 0,1 km/h (0 Bft) N 0,00 h -0,2 C 0,0 km/h (0 Bft)
08.04.2016 07:00 1,7 C 1,6 C 86 % 1011,0 hPa 0,0 mm 0,0 km/h (0 Bft) N 0,00 h -0,3 C 0,0 km/h (0 Bft)
08.04.2016 08:00 2,2 C 2,2 C 86 % 1011,0 hPa 0,7 mm 3,1 km/h (1 Bft) N-NO 0,00 h 0,1 C 5,2 km/h (1 Bft)
08.04.2016 09:00 2,6 C 2,7 C 86 % 1010,7 hPa 0,0 mm 6,9 km/h (2 Bft) NO 0,00 h 0,5 C 9,4 km/h (2 Bft)
08.04.2016 10:00 3,0 C 3,2 C 86 % 1010,6 hPa 0,0 mm 7,3 km/h (2 Bft) NO 0,00 h 0,8 C 9,0 km/h (2 Bft)
08.04.2016 11:00 3,4 C 3,7 C 85 % 1010,5 hPa 0,0 mm 7,0 km/h (2 Bft) O-NO 0,00 h 1,1 C 9,0 km/h (2 Bft)
08.04.2016 12:00 4,1 C 4,9 C 83 % 1010,4 hPa 0,0 mm 7,3 km/h (2 Bft) NO 0,00 h 1,4 C 9,4 km/h (2 Bft)
08.04.2016 13:00 4,5 C 5,4 C 82 % 1010,1 hPa 0,0 mm 7,7 km/h (2 Bft) O-NO 0,00 h 1,7 C 8,6 km/h (2 Bft)
08.04.2016 14:00 4,5 C 5,3 C 81 % 1009,8 hPa 0,0 mm 7,1 km/h (2 Bft) NO 0,00 h 1,5 C 8,2 km/h (2 Bft)
08.04.2016 15:00 4,4 C 4,6 C 79 % 1009,6 hPa 0,0 mm 6,5 km/h (2 Bft) NO 0,00 h 1,0 C 8,2 km/h (2 Bft)
08.04.2016 16:00 3,8 C 3,9 C 81 % 1009,3 hPa 0,0 mm 4,1 km/h (1 Bft) N-NO 0,00 h 0,8 C 3,8 km/h (1 Bft)
08.04.2016 17:00 3,7 C 3,6 C 83 % 1009,0 hPa 0,0 mm 3,0 km/h (1 Bft) N-NO 0,00 h 1,0 C 4,0 km/h (1 Bft)
08.04.2016 18:00 2,9 C 3,2 C 85 % 1009,0 hPa 0,0 mm 0,7 km/h (0 Bft) O-NO 0,00 h 0,7 C 0,4 km/h (0 Bft)
08.04.2016 19:00 0,0 C 3,1 C 86 % 1008,9 hPa 0,7 mm 0,0 km/h (0 Bft) N 0,00 h -2,1 C 0,0 km/h (0 Bft)
08.04.2016 20:00 2,7 C 2,8 C 87 % 1009,2 hPa 0,7 mm 0,2 km/h (0 Bft) N 0,00 h 0,7 C 0,3 km/h (0 Bft)
08.04.2016 21:00 2,7 C 2,5 C 86 % 1009,3 hPa 0,7 mm 0,2 km/h (0 Bft) N 0,00 h 0,6 C 0,0 km/h (0 Bft)
08.04.2016 22:00 2,6 C 2,5 C 87 % 1009,2 hPa 0,0 mm 0,1 km/h (0 Bft) N 0,00 h 0,6 C 0,0 km/h (0 Bft)
08.04.2016 23:00 2,5 C 2,3 C 87 % 1009,0 hPa 0,7 mm 0,0 km/h (0 Bft) N 0,00 h 0,5 C 0,0 km/h (0 Bft)
09.04.2016 00:00 2,3 C 2,1 C 88 % 1008,5 hPa 0,0 mm 0,0 km/h (0 Bft) N 0,00 h 0,5 C 0,0 km/h (0 Bft)
09.04.2016 01:00 2,2 C 2,0 C 89 % 1008,1 hPa 0,0 mm 0,0 km/h (0 Bft) N 0,00 h 0,6 C 0,0 km/h (0 Bft)
09.04.2016 02:00 2,3 C 2,1 C 88 % 1007,8 hPa 0,0 mm 0,3 km/h (0 Bft) SO 0,00 h 0,4 C 1,1 km/h (0 Bft)
09.04.2016 03:00 2,4 C 2,2 C 90 % 1007,2 hPa 0,7 mm 0,1 km/h (0 Bft) N 0,00 h 0,9 C 0,0 km/h (0 Bft)
09.04.2016 04:00 2,4 C 2,3 C 89 % 1006,8 hPa 0,7 mm 0,6 km/h (0 Bft) N-NO 0,00 h 0,8 C 2,6 km/h (1 Bft)
09.04.2016 05:00 2,2 C 2,0 C 90 % 1006,7 hPa 0,7 mm 2,5 km/h (1 Bft) NO 0,00 h 0,7 C 3,3 km/h (1 Bft)
09.04.2016 06:00 1,8 C 1,7 C 89 % 1006,7 hPa 0,7 mm 2,0 km/h (1 Bft) O-NO 0,00 h 0,3 C 3,4 km/h (1 Bft)
09.04.2016 07:00 1,8 C 1,7 C 88 % 1006,7 hPa 0,0 mm 3,4 km/h (1 Bft) NO 0,00 h 0,1 C 5,7 km/h (1 Bft)
09.04.2016 08:00 1,9 C 1,9 C 88 % 1006,7 hPa 0,0 mm 1,6 km/h (1 Bft) NO 0,00 h 0,1 C 2,8 km/h (1 Bft)
09.04.2016 09:00 2,3 C 2,0 C 88 % 1006,7 hPa 0,0 mm 6,1 km/h (2 Bft) NO 0,00 h 0,5 C 10,1 km/h (2 Bft)
09.04.2016 10:00 2,5 C 2,2 C 88 % 1006,8 hPa 0,0 mm 7,6 km/h (2 Bft) O-NO 0,00 h 0,7 C 12,0 km/h (2 Bft)
09.04.2016 11:00 2,7 C 2,4 C 88 % 1006,8 hPa 0,0 mm 9,6 km/h (2 Bft) O-NO 0,00 h 0,9 C 12,7 km/h (3 Bft)
09.04.2016 12:00 3,4 C 3,2 C 87 % 1006,5 hPa 0,0 mm 10,7 km/h (2 Bft) NO 0,00 h 1,5 C 12,6 km/h (3 Bft)
09.04.2016 13:00 4,1 C 4,1 C 86 % 1006,5 hPa 0,7 mm 9,6 km/h (2 Bft) O-NO 0,00 h 2,0 C 13,6 km/h (3 Bft)
09.04.2016 14:00 4,5 C 4,3 C 86 % 1006,5 hPa 0,0 mm 10,0 km/h (2 Bft) O-NO 0,00 h 2,4 C 13,7 km/h (3 Bft)
09.04.2016 15:00 4,8 C 5,0 C 86 % 1006,4 hPa 0,7 mm 9,6 km/h (2 Bft) NO 0,00 h 2,7 C 11,4 km/h (2 Bft)
09.04.2016 16:00 0,4 C 5,2 C 83 % 1006,6 hPa 0,0 mm 7,9 km/h (2 Bft) O-NO 0,00 h -2,1 C 9,9 km/h (2 Bft)
09.04.2016 17:00 3,5 C 5,4 C 84 % 1006,9 hPa 0,7 mm 8,9 km/h (2 Bft) O-NO 0,00 h 1,0 C 10,1 km/h (2 Bft)
09.04.2016 18:00 5,1 C 5,2 C 84 % 1007,1 hPa 0,0 mm 5,3 km/h (1 Bft) O-NO 0,00 h 2,6 C 6,3 km/h (2 Bft)
09.04.2016 19:00 4,6 C 4,4 C 86 % 1007,6 hPa 0,0 mm 2,7 km/h (1 Bft) NO 0,00 h 2,4 C 4,3 km/h (1 Bft)
09.04.2016 20:00 4,1 C 3,8 C 87 % 1008,2 hPa 0,0 mm 0,3 km/h (0 Bft) S-SO 0,00 h 2,0 C 1,1 km/h (0 Bft)
09.04.2016 21:00 3,8 C 3,6 C 88 % 1008,7 hPa 0,0 mm 1,8 km/h (1 Bft) S-SO 0,00 h 2,0 C 1,7 km/h (1 Bft)
09.04.2016 22:00 0,3 C 3,4 C 89 % 1008,9 hPa 0,0 mm 0,2 km/h (0 Bft) N 0,00 h -1,3 C 0,0 km/h (0 Bft)
09.04.2016 23:00 0,0 C 3,2 C 90 % 1008,9 hPa 0,0 mm 0,0 km/h (0 Bft) N 0,00 h -1,4 C 0,0 km/h (0 Bft)
10.04.2016 00:00 0,0 C 3,3 C 90 % 1009,0 hPa 0,0 mm 0,1 km/h (0 Bft) N 0,00 h -1,4 C 0,3 km/h (0 Bft)
10.04.2016 01:00 0,0 C 3,6 C 90 % 1009,1 hPa 0,0 mm 0,7 km/h (0 Bft) S-SW 0,00 h -1,4 C 1,5 km/h (1 Bft)
10.04.2016 02:00 0,0 C 3,6 C 90 % 1009,3 hPa 0,0 mm 2,4 km/h (1 Bft) SW 0,00 h -1,4 C 3,1 km/h (1 Bft)
10.04.2016 03:00 0,0 C 3,5 C 90 % 1009,5 hPa 0,0 mm 1,6 km/h (1 Bft) S-SO 0,00 h -1,4 C 2,8 km/h (1 Bft)
10.04.2016 04:00 0,0 C 3,5 C 90 % 1009,8 hPa 0,0 mm 0,4 km/h (0 Bft) S-SW 0,00 h -1,4 C 0,5 km/h (0 Bft)
10.04.2016 05:00 0,0 C 3,4 C 91 % 1009,9 hPa 0,0 mm 0,9 km/h (0 Bft) O-SO 0,00 h -1,3 C 1,1 km/h (1 Bft)
10.04.2016 06:00 0,0 C 3,3 C 91 % 1010,1 hPa 0,0 mm 0,0 km/h (0 Bft) N 0,00 h -1,3 C 0,0 km/h (0 Bft)
10.04.2016 07:00 0,0 C 3,3 C 91 % 1010,5 hPa 0,0 mm 0,0 km/h (0 Bft) N 0,00 h -1,3 C 0,0 km/h (0 Bft)
10.04.2016 08:00 0,0 C 4,2 C 91 % 1010,8 hPa 0,0 mm 0,1 km/h (0 Bft) W-SW 0,00 h -1,3 C 0,7 km/h (0 Bft)
10.04.2016 09:00 0,0 C 6,8 C 89 % 1011,0 hPa 0,0 mm 1,5 km/h (1 Bft) NO 0,00 h -1,6 C 2,3 km/h (1 Bft)
10.04.2016 10:00 0,0 C 10,9 C 78 % 1011,4 hPa 0,0 mm 5,1 km/h (1 Bft) NO 0,50 h -3,4 C 8,5 km/h (2 Bft)
10.04.2016 11:00 9,4 C 16,2 C 70 % 1012,8 hPa 0,0 mm 9,2 km/h (2 Bft) N-NO 1,00 h 4,2 C 11,3 km/h (2 Bft)
10.04.2016 12:00 10,5 C 15,1 C 64 % 1013,6 hPa 0,0 mm 10,6 km/h (2 Bft) O-NO 0,75 h 3,9 C 15,1 km/h (3 Bft)
10.04.2016 13:00 11,0 C 14,8 C 61 % 1012,4 hPa 0,0 mm 11,5 km/h (2 Bft) O-NO 0,58 h 3,7 C 14,8 km/h (3 Bft)
10.04.2016 14:00 11,2 C 14,2 C 58 % 1011,9 hPa 0,0 mm 11,6 km/h (2 Bft) O-NO 0,42 h 3,3 C 14,3 km/h (3 Bft)
10.04.2016 15:00 11,9 C 15,0 C 58 % 1011,2 hPa 0,0 mm 13,2 km/h (3 Bft) O-NO 0,33 h 3,8 C 17,3 km/h (3 Bft)
10.04.2016 16:00 12,1 C 15,2 C 57 % 1010,6 hPa 0,0 mm 13,6 km/h (3 Bft) NO 0,58 h 4,0 C 17,1 km/h (3 Bft)
10.04.2016 17:00 11,5 C 13,0 C 59 % 1010,4 hPa 0,0 mm 12,3 km/h (3 Bft) NO 0,00 h 3,8 C 15,8 km/h (3 Bft)
10.04.2016 18:00 11,0 C 11,5 C 59 % 1010,4 hPa 0,0 mm 11,9 km/h (2 Bft) NO 0,00 h 3,4 C 14,2 km/h (3 Bft)
10.04.2016 19:00 9,7 C 10,2 C 63 % 1010,5 hPa 0,0 mm 5,4 km/h (1 Bft) NO 0,00 h 2,9 C 8,0 km/h (2 Bft)
10.04.2016 20:00 7,1 C 6,8 C 70 % 1010,5 hPa 0,0 mm 1,7 km/h (1 Bft) SO 0,00 h 1,9 C 3,0 km/h (1 Bft)
10.04.2016 21:00 4,6 C 4,2 C 75 % 1010,5 hPa 0,0 mm 0,1 km/h (0 Bft) N 0,00 h 0,6 C 0,0 km/h (0 Bft)
10.04.2016 22:00 3,0 C 2,5 C 79 % 1010,5 hPa 0,0 mm 0,0 km/h (0 Bft) N 0,00 h -0,3 C 0,0 km/h (0 Bft)
10.04.2016 23:00 1,9 C 1,6 C 83 % 1010,4 hPa 0,0 mm 0,1 km/h (0 Bft) N 0,00 h -0,7 C 0,0 km/h (0 Bft)
Min-Datum _ 10.04.16 10.04.16 04.04.16 05.04.16 - 10.04.16 - - 10.04.16 10.04.16
_ Min-Zeit 11:00 23:50 16:00 06:10 - 23:00 - - 11:00 23:00
Minimum _ 0,0 C 1,0 C 42 % 1005,9 hPa - 0,0 km/h (0 Bft) - - -6,8 C 0,0 km/h (0 Bft)
Max-Datum _ 05.04.16 05.04.16 10.04.16 06.04.16 07.04.16 10.04.16 - 10.04.16 05.04.16 10.04.16
_ Max-Zeit 14:05 14:25 09:00 12:10 22:10 16:30 - 16:05 14:00 16:15
Maximum _ 21,6 C 26,0 C 91 % 1016,1 hPa 2,1 mm 15,5 km/h
NO (3 Bft)
- 0,08 h 9,2 C 31,6 km/h
NO (5 Bft)
Durchschnitt _ 7,6 C 8,6 C 74 % 1010,3 hPa #20,6 mm 3,9 km/h (1 Bft) W #13:33 h 3,0 C 5,1 km/h (1 Bft)